Time;durP1;ratioP1;P1;durP2;ratioP2;P2;SDS_P1;SDS_P2;PMS_P1;PMS_P2;Temp;Humidity;BMP_temperature;BMP_pressure;BME280_temperature;BME280_humidity;BME280_pressure;Samples;Min_cycle;Max_cycle;Signal;HPM_P1;HPM_P2
2021/09/23 00:00:23;;;;;;;3.62;1.92;;;13.90;69.80;;;;;;2466974;55;20977;-71
2021/09/23 00:03:09;;;;;;;4.15;1.70;;;13.90;69.80;;;;;;2267697;55;21366;-70
2021/09/23 00:05:35;;;;;;;3.58;1.67;;;13.90;69.80;;;;;;2264856;55;20969;-69
2021/09/23 00:08:03;;;;;;;3.35;1.65;;;13.80;69.70;;;;;;2248702;55;20977;-70
2021/09/23 00:10:31;;;;;;;3.50;1.85;;;13.80;69.80;;;;;;2248485;56;21047;-70
2021/09/23 00:13:03;;;;;;;3.15;1.83;;;13.80;69.80;;;;;;2254298;55;20982;-69
2021/09/23 00:15:29;;;;;;;3.28;1.77;;;13.80;69.70;;;;;;2251575;55;21115;-70
2021/09/23 00:17:59;;;;;;;2.95;1.50;;;13.70;69.80;;;;;;2250061;56;20958;-70
2021/09/23 00:20:27;;;;;;;3.92;1.92;;;13.70;69.90;;;;;;2240863;56;21609;-71
2021/09/23 00:22:53;;;;;;;3.50;2.03;;;13.70;69.90;;;;;;2267353;55;20985;-70
2021/09/23 00:25:20;;;;;;;4.25;1.70;;;13.70;70.70;;;;;;2288263;55;21034;-71
2021/09/23 00:27:46;;;;;;;3.10;1.80;;;13.60;69.90;;;;;;2255254;55;21121;-70
2021/09/23 00:30:13;;;;;;;4.00;2.00;;;13.60;69.90;;;;;;2272636;55;21026;-70
2021/09/23 00:32:40;;;;;;;3.40;1.70;;;13.60;70.00;;;;;;2243563;56;21105;-69
2021/09/23 00:35:07;;;;;;;3.20;1.60;;;13.60;70.00;;;;;;2241682;56;20954;-69
2021/09/23 00:37:33;;;;;;;3.53;2.05;;;13.50;69.90;;;;;;2269759;55;21064;-70
2021/09/23 00:39:59;;;;;;;3.75;1.90;;;13.50;70.00;;;;;;2244459;55;20958;-71
2021/09/23 00:42:26;;;;;;;3.50;1.60;;;13.50;70.00;;;;;;2268376;56;21093;-69
2021/09/23 00:44:56;;;;;;;2.70;1.52;;;13.50;70.10;;;;;;2269056;55;21044;-69
2021/09/23 00:47:23;;;;;;;3.17;1.75;;;13.40;70.00;;;;;;2234395;56;21106;-71
2021/09/23 00:49:50;;;;;;;2.97;1.80;;;13.50;70.10;;;;;;2266115;56;20930;-71
2021/09/23 00:52:19;;;;;;;2.97;1.55;;;13.40;69.90;;;;;;2268092;55;20938;-69
2021/09/23 00:54:46;;;;;;;3.33;2.00;;;13.40;69.90;;;;;;2268977;55;21042;-70
2021/09/23 00:57:17;;;;;;;3.28;1.90;;;13.40;69.90;;;;;;2265310;55;21026;-71
2021/09/23 00:59:45;;;;;;;3.45;1.80;;;13.30;70.00;;;;;;2267394;55;21018;-70
2021/09/23 01:02:11;;;;;;;3.60;2.03;;;13.30;70.20;;;;;;2263220;55;21747;-69
2021/09/23 01:04:42;;;;;;;3.60;1.85;;;13.30;70.50;;;;;;2271156;55;22250;-71
2021/09/23 01:07:12;;;;;;;3.15;1.80;;;13.30;70.50;;;;;;2256372;55;20966;-70
2021/09/23 01:09:45;;;;;;;3.80;2.03;;;13.30;70.30;;;;;;2262422;55;21548;-71
2021/09/23 01:12:12;;;;;;;3.75;2.05;;;13.30;70.30;;;;;;2267423;55;20962;-71
2021/09/23 01:14:39;;;;;;;3.45;1.90;;;13.20;70.10;;;;;;2490780;55;21006;-71
2021/09/23 01:17:05;;;;;;;3.50;2.15;;;13.20;70.10;;;;;;2459758;55;21043;-70
2021/09/23 01:19:32;;;;;;;4.10;2.05;;;13.20;70.00;;;;;;2264410;55;22019;-71
2021/09/23 01:21:59;;;;;;;4.10;2.08;;;13.20;69.90;;;;;;2477685;55;21133;-70
2021/09/23 01:24:26;;;;;;;4.32;2.00;;;13.20;70.70;;;;;;2305004;55;21002;-71
2021/09/23 01:26:52;;;;;;;3.90;2.08;;;13.10;69.90;;;;;;2261392;55;20983;-70
2021/09/23 01:29:18;;;;;;;4.65;2.47;;;13.20;70.20;;;;;;2436264;55;21152;-70
2021/09/23 01:31:45;;;;;;;4.40;2.60;;;13.10;70.20;;;;;;2384154;55;20954;-71
2021/09/23 01:34:12;;;;;;;5.43;2.70;;;13.10;70.40;;;;;;2490284;55;21096;-71
2021/09/23 01:36:39;;;;;;;5.07;2.70;;;13.10;70.50;;;;;;2384153;55;21487;-69
2021/09/23 01:39:06;;;;;;;6.53;3.05;;;13.10;70.70;;;;;;2267464;55;20950;-71
2021/09/23 01:41:32;;;;;;;5.15;2.42;;;13.10;70.80;;;;;;2499435;55;21038;-71
2021/09/23 01:43:59;;;;;;;4.53;2.72;;;13.10;70.90;;;;;;2267124;55;21046;-71
2021/09/23 01:46:25;;;;;;;4.20;2.53;;;13.10;70.80;;;;;;2247716;55;20933;-69
2021/09/23 01:48:52;;;;;;;4.32;2.90;;;13.10;70.80;;;;;;2281974;55;21085;-69
2021/09/23 01:51:18;;;;;;;6.37;3.40;;;13.10;70.80;;;;;;2299049;55;22012;-71
2021/09/23 01:53:48;;;;;;;6.32;3.53;;;13.10;70.80;;;;;;2249668;55;21100;-69
2021/09/23 01:56:14;;;;;;;5.47;2.85;;;13.10;70.80;;;;;;2240904;56;20948;-69
2021/09/23 01:58:40;;;;;;;4.68;2.90;;;13.10;70.80;;;;;;2274457;55;21583;-70
2021/09/23 02:01:07;;;;;;;5.68;2.67;;;13.10;70.70;;;;;;2262880;55;20970;-71
2021/09/23 02:03:33;;;;;;;6.45;3.12;;;13.10;70.70;;;;;;2295597;55;20983;-70
2021/09/23 02:05:59;;;;;;;4.97;2.97;;;13.10;70.70;;;;;;2262734;55;21085;-71
2021/09/23 02:08:26;;;;;;;4.45;2.90;;;13.10;70.50;;;;;;2270261;56;22445;-69
2021/09/23 02:10:53;;;;;;;5.00;2.95;;;13.00;70.30;;;;;;2265514;55;20974;-70
2021/09/23 02:13:20;;;;;;;7.50;3.40;;;13.10;70.50;;;;;;2270457;56;20958;-69
2021/09/23 02:15:46;;;;;;;5.55;3.00;;;13.00;70.50;;;;;;2267855;55;20966;-70
2021/09/23 02:18:13;;;;;;;7.35;3.83;;;13.00;70.50;;;;;;2329619;55;21037;-70
2021/09/23 02:20:39;;;;;;;5.40;3.22;;;13.00;70.50;;;;;;2245674;55;21002;-69
2021/09/23 02:23:06;;;;;;;5.32;2.75;;;12.90;70.50;;;;;;2493787;55;21400;-71
2021/09/23 02:25:33;;;;;;;4.68;3.15;;;12.90;70.50;;;;;;2271625;55;20986;-69
2021/09/23 02:27:59;;;;;;;5.35;2.85;;;12.90;70.70;;;;;;2409673;55;21084;-70
2021/09/23 02:30:28;;;;;;;4.70;2.65;;;13.00;70.80;;;;;;2268932;55;20954;-69
2021/09/23 02:32:55;;;;;;;7.45;3.58;;;12.90;70.70;;;;;;2268283;55;21325;-70
2021/09/23 02:35:21;;;;;;;5.10;2.85;;;12.90;70.70;;;;;;2271223;55;21116;-71
2021/09/23 02:37:51;;;;;;;5.53;3.00;;;12.90;70.70;;;;;;2295959;55;22163;-69
2021/09/23 02:40:17;;;;;;;4.65;2.60;;;12.90;70.80;;;;;;2263047;56;20974;-70
2021/09/23 02:42:44;;;;;;;6.28;3.33;;;12.90;70.80;;;;;;2246429;56;21014;-70
2021/09/23 02:45:11;;;;;;;5.00;2.90;;;12.90;70.80;;;;;;2266754;55;20958;-71
2021/09/23 02:47:37;;;;;;;4.40;2.67;;;12.90;70.90;;;;;;2269612;55;21014;-71
2021/09/23 02:50:05;;;;;;;6.12;2.92;;;12.90;70.90;;;;;;2269263;56;20986;-70
2021/09/23 02:52:31;;;;;;;5.72;3.05;;;12.80;70.70;;;;;;2266607;55;22419;-70
2021/09/23 02:54:58;;;;;;;5.25;3.15;;;12.90;70.80;;;;;;2268273;56;22004;-70
2021/09/23 02:57:25;;;;;;;5.65;3.40;;;12.80;70.70;;;;;;2270396;55;21035;-70
2021/09/23 02:59:51;;;;;;;5.07;3.28;;;12.80;70.70;;;;;;2259994;55;21136;-69
2021/09/23 03:02:19;;;;;;;6.28;3.50;;;12.80;70.60;;;;;;2269380;56;21054;-69
2021/09/23 03:04:45;;;;;;;4.80;3.03;;;12.80;70.50;;;;;;2245041;56;21477;-71
2021/09/23 03:07:12;;;;;;;4.37;2.47;;;12.80;70.20;;;;;;2273905;55;21115;-69
2021/09/23 03:09:39;;;;;;;4.68;3.12;;;12.70;70.10;;;;;;2257757;55;21022;-70
2021/09/23 03:12:06;;;;;;;4.75;2.78;;;12.70;70.30;;;;;;2265065;55;21042;-69
2021/09/23 03:14:33;;;;;;;4.43;2.62;;;12.70;70.30;;;;;;2268089;56;22050;-70
2021/09/23 03:16:59;;;;;;;3.97;2.33;;;12.70;70.30;;;;;;2264529;55;21416;-69
2021/09/23 03:19:27;;;;;;;4.18;2.45;;;12.60;70.30;;;;;;2268171;55;21474;-70
2021/09/23 03:21:54;;;;;;;5.05;2.97;;;12.60;70.40;;;;;;2306570;55;20966;-69
2021/09/23 03:24:21;;;;;;;5.12;2.95;;;12.60;70.50;;;;;;2399512;55;21058;-71
2021/09/23 03:26:47;;;;;;;5.32;3.20;;;12.60;70.60;;;;;;2267810;55;21018;-69
2021/09/23 03:29:14;;;;;;;4.70;2.80;;;12.60;70.60;;;;;;2265722;55;20930;-71
2021/09/23 03:31:41;;;;;;;4.40;2.53;;;12.60;70.60;;;;;;2498944;55;20981;-71
2021/09/23 03:34:07;;;;;;;5.87;3.20;;;12.60;70.60;;;;;;2262347;55;22009;-71
2021/09/23 03:36:34;;;;;;;3.85;2.35;;;12.50;70.50;;;;;;2269461;55;21361;-70
2021/09/23 03:39:00;;;;;;;4.95;2.83;;;12.60;70.70;;;;;;2348184;55;20962;-70
2021/09/23 03:41:27;;;;;;;7.00;3.30;;;12.50;71.20;;;;;;2258560;56;21477;-70
2021/09/23 03:43:53;;;;;;;11.10;3.40;;;12.50;70.40;;;;;;2269296;56;20958;-71
2021/09/23 03:46:19;;;;;;;4.97;3.12;;;12.50;70.50;;;;;;2243300;56;20978;-70
2021/09/23 03:48:46;;;;;;;6.05;3.37;;;12.50;70.60;;;;;;2268980;56;20954;-69
2021/09/23 03:51:13;;;;;;;6.05;3.67;;;12.40;70.70;;;;;;2269426;55;21006;-72
2021/09/23 03:53:40;;;;;;;6.40;3.60;;;12.40;70.90;;;;;;2464023;55;21017;-71
2021/09/23 03:56:07;;;;;;;6.90;3.95;;;12.40;71.00;;;;;;2273574;55;21010;-69
2021/09/23 03:58:34;;;;;;;6.40;4.20;;;12.40;71.70;;;;;;2482256;55;21787;-70
2021/09/23 04:01:00;;;;;;;8.00;3.50;;;12.40;71.40;;;;;;2265149;55;21002;-70
2021/09/23 04:03:27;;;;;;;5.20;3.40;;;12.40;71.40;;;;;;2270752;56;21002;-70
2021/09/23 04:05:56;;;;;;;5.00;3.33;;;12.40;71.50;;;;;;2267462;55;21022;-70
2021/09/23 04:08:22;;;;;;;5.25;3.50;;;12.40;71.60;;;;;;2270617;55;22125;-70
2021/09/23 04:10:49;;;;;;;5.35;3.30;;;12.40;71.70;;;;;;2267399;55;21057;-69
2021/09/23 04:13:20;;;;;;;6.18;3.50;;;12.40;71.70;;;;;;2270150;55;21181;-71
2021/09/23 04:15:48;;;;;;;5.50;3.17;;;12.40;71.60;;;;;;2399856;55;21017;-69
2021/09/23 04:18:17;;;;;;;5.60;3.40;;;12.50;71.70;;;;;;2260882;55;21003;-69
2021/09/23 04:20:45;;;;;;;6.32;3.25;;;12.40;71.50;;;;;;2262002;55;21596;-69
2021/09/23 04:23:11;;;;;;;5.15;3.03;;;12.50;71.60;;;;;;2258635;55;21013;-69
2021/09/23 04:25:38;;;;;;;4.80;2.70;;;12.40;71.40;;;;;;2250379;55;20997;-71
2021/09/23 04:28:04;;;;;;;4.45;2.62;;;12.50;71.50;;;;;;2269254;55;20952;-68
2021/09/23 04:30:31;;;;;;;4.45;2.60;;;12.40;71.30;;;;;;2252361;56;21057;-69
2021/09/23 04:32:58;;;;;;;4.85;2.83;;;12.50;71.30;;;;;;2455406;55;21125;-69
2021/09/23 04:35:24;;;;;;;4.62;2.90;;;12.50;71.20;;;;;;2263502;55;21430;-69
2021/09/23 04:37:51;;;;;;;4.53;2.92;;;12.50;71.10;;;;;;2268359;55;20974;-71
2021/09/23 04:40:17;;;;;;;5.07;2.87;;;12.40;70.80;;;;;;2262563;55;20993;-70
2021/09/23 04:42:44;;;;;;;4.65;2.62;;;12.40;70.60;;;;;;2269387;56;21010;-71
2021/09/23 04:45:14;;;;;;;5.75;3.33;;;12.40;70.60;;;;;;2269403;56;20962;-69
2021/09/23 04:47:40;;;;;;;5.72;3.40;;;12.30;70.50;;;;;;2363516;55;20975;-68
2021/09/23 04:50:06;;;;;;;6.20;3.42;;;12.30;70.50;;;;;;2257004;55;21536;-69
2021/09/23 04:52:33;;;;;;;6.22;3.60;;;12.30;70.50;;;;;;2246259;56;21399;-71
2021/09/23 04:54:59;;;;;;;5.43;3.22;;;12.30;70.40;;;;;;2292884;55;22012;-69
2021/09/23 04:57:25;;;;;;;5.10;3.05;;;12.30;70.40;;;;;;2254406;56;21049;-70
2021/09/23 04:59:52;;;;;;;5.85;3.62;;;12.30;70.50;;;;;;2265301;55;21932;-70
2021/09/23 05:02:18;;;;;;;4.93;3.12;;;12.20;70.50;;;;;;2267833;55;21406;-68
2021/09/23 05:04:45;;;;;;;6.65;3.17;;;12.20;70.40;;;;;;2263716;55;20947;-70
2021/09/23 05:07:12;;;;;;;5.90;3.45;;;12.20;70.20;;;;;;2260589;56;21006;-70
2021/09/23 05:09:38;;;;;;;6.12;3.50;;;12.20;70.10;;;;;;2265736;55;21055;-70
2021/09/23 05:12:05;;;;;;;5.50;3.05;;;12.10;70.00;;;;;;2263879;55;21430;-71
2021/09/23 05:14:31;;;;;;;5.30;3.47;;;12.00;69.80;;;;;;2258598;55;21057;-69
2021/09/23 05:16:57;;;;;;;4.82;2.92;;;11.90;69.80;;;;;;2266203;55;21554;-69
2021/09/23 05:19:24;;;;;;;5.85;3.55;;;12.00;70.00;;;;;;2271216;55;22041;-70
2021/09/23 05:21:50;;;;;;;4.28;2.47;;;11.90;70.00;;;;;;2258432;55;21048;-71
2021/09/23 05:24:17;;;;;;;6.45;3.33;;;11.90;70.00;;;;;;2269043;56;20979;-69
2021/09/23 05:26:44;;;;;;;5.47;2.85;;;11.90;70.10;;;;;;2353321;55;20997;-70
2021/09/23 05:29:10;;;;;;;4.60;2.78;;;11.80;70.00;;;;;;2270889;55;20954;-69
2021/09/23 05:31:40;;;;;;;5.43;2.78;;;11.80;70.20;;;;;;2269184;56;20961;-69
2021/09/23 05:34:06;;;;;;;5.72;3.03;;;11.80;70.40;;;;;;2483701;55;21022;-69
2021/09/23 05:36:32;;;;;;;5.65;3.35;;;11.80;70.40;;;;;;2226718;55;22088;-70
2021/09/23 05:38:59;;;;;;;5.22;2.30;;;11.80;70.50;;;;;;2415484;55;20969;-68
2021/09/23 05:41:26;;;;;;;6.15;2.90;;;11.80;70.50;;;;;;2262545;55;21573;-72
2021/09/23 05:43:53;;;;;;;4.90;2.70;;;11.80;70.60;;;;;;2233946;55;21020;-70
2021/09/23 05:46:19;;;;;;;5.70;2.95;;;11.80;70.70;;;;;;2235107;55;21061;-70
2021/09/23 05:48:45;;;;;;;5.22;2.62;;;11.80;70.70;;;;;;2381291;55;21059;-69
2021/09/23 05:51:11;;;;;;;7.72;3.75;;;11.80;70.60;;;;;;2260118;55;21021;-69
2021/09/23 05:53:47;;;;;;;6.47;3.28;;;11.80;70.60;;;;;;2254468;55;21931;-71
2021/09/23 05:56:13;;;;;;;6.07;3.53;;;11.80;70.50;;;;;;2212390;56;21068;-70
2021/09/23 05:58:39;;;;;;;6.22;3.25;;;11.70;70.50;;;;;;2240943;55;20953;-69
2021/09/23 06:01:05;;;;;;;5.78;3.37;;;11.70;70.50;;;;;;2234198;56;21000;-70
2021/09/23 06:03:45;;;;;;;5.93;3.25;;;11.70;70.50;;;;;;2232763;56;21084;-71
2021/09/23 06:06:11;;;;;;;6.37;3.10;;;11.70;70.60;;;;;;2234787;56;21322;-70
2021/09/23 06:08:38;;;;;;;5.75;3.20;;;11.70;70.60;;;;;;2234876;56;20952;-70
2021/09/23 06:11:04;;;;;;;6.62;3.45;;;11.70;70.80;;;;;;2245998;56;20966;-69
2021/09/23 06:13:30;;;;;;;6.12;3.25;;;11.70;70.90;;;;;;2393478;55;21504;-68
2021/09/23 06:15:56;;;;;;;5.72;3.35;;;11.70;71.00;;;;;;2221370;56;21722;-71
2021/09/23 06:18:25;;;;;;;6.18;3.72;;;11.70;71.20;;;;;;2226387;55;20993;-70
2021/09/23 06:20:52;;;;;;;6.43;3.70;;;11.80;72.30;;;;;;2252284;55;20999;-70
2021/09/23 06:23:18;;;;;;;5.57;3.08;;;11.90;73.60;;;;;;2448184;54;22064;-69
2021/09/23 06:25:45;;;;;;;4.68;2.60;;;12.00;74.00;;;;;;2253364;55;20978;-71
2021/09/23 06:28:11;;;;;;;4.97;2.60;;;12.10;74.00;;;;;;2260414;56;20991;-70
2021/09/23 06:30:37;;;;;;;4.15;2.37;;;12.20;73.80;;;;;;2268628;56;21009;-71
2021/09/23 06:33:04;;;;;;;5.50;3.05;;;12.30;73.60;;;;;;2321197;55;20986;-69
2021/09/23 06:35:30;;;;;;;5.53;3.17;;;12.30;73.30;;;;;;2265627;55;22057;-69
2021/09/23 06:37:57;;;;;;;6.12;4.00;;;12.40;73.10;;;;;;2251707;55;20965;-69
2021/09/23 06:40:23;;;;;;;6.40;3.85;;;12.50;73.10;;;;;;2256963;55;22234;-71
2021/09/23 06:42:49;;;;;;;5.10;3.00;;;12.50;73.00;;;;;;2263105;55;21022;-69
2021/09/23 06:45:16;;;;;;;4.07;2.78;;;12.50;73.10;;;;;;2268256;55;21021;-69
2021/09/23 06:47:42;;;;;;;4.37;2.78;;;12.60;73.20;;;;;;2246229;56;20999;-69
2021/09/23 06:50:09;;;;;;;5.15;3.05;;;12.60;73.20;;;;;;2261910;55;20995;-70
2021/09/23 06:52:37;;;;;;;4.78;3.00;;;12.70;73.50;;;;;;2265855;56;21073;-69
2021/09/23 06:55:03;;;;;;;5.05;3.10;;;12.70;73.50;;;;;;2271692;55;22237;-69
2021/09/23 06:57:29;;;;;;;5.15;3.08;;;12.80;73.50;;;;;;2292089;55;20958;-71
2021/09/23 06:59:56;;;;;;;5.28;3.10;;;12.80;73.50;;;;;;2267536;55;21046;-71
2021/09/23 07:02:22;;;;;;;4.43;3.03;;;12.90;73.70;;;;;;2253168;55;20947;-71
2021/09/23 07:04:50;;;;;;;6.55;3.20;;;13.00;73.90;;;;;;2268660;55;21014;-71
2021/09/23 07:07:17;;;;;;;4.78;2.72;;;13.00;74.00;;;;;;2254956;55;20977;-71
2021/09/23 07:09:45;;;;;;;4.80;2.50;;;13.00;74.10;;;;;;2252547;55;21348;-69
2021/09/23 07:12:11;;;;;;;5.32;2.60;;;13.10;74.20;;;;;;2263833;55;20974;-69
2021/09/23 07:14:38;;;;;;;4.53;2.60;;;13.20;74.50;;;;;;2268855;56;22329;-72
2021/09/23 07:17:05;;;;;;;5.78;2.37;;;13.30;74.70;;;;;;2268558;55;21058;-70
2021/09/23 07:19:31;;;;;;;4.40;2.50;;;13.40;75.00;;;;;;2265858;55;21015;-69
2021/09/23 07:21:58;;;;;;;4.45;2.85;;;13.40;75.10;;;;;;2242519;55;22343;-75
2021/09/23 07:24:24;;;;;;;4.90;3.30;;;13.50;75.30;;;;;;2268287;56;21018;-73
2021/09/23 07:26:51;;;;;;;7.18;3.40;;;13.60;75.40;;;;;;2267748;55;22141;-69
2021/09/23 07:29:17;;;;;;;5.62;3.80;;;13.70;75.40;;;;;;2268714;56;20954;-72
2021/09/23 07:31:44;;;;;;;6.95;3.70;;;13.80;75.60;;;;;;2268434;55;21078;-73
2021/09/23 07:34:11;;;;;;;5.10;3.37;;;13.90;75.70;;;;;;2263472;55;21026;-74
2021/09/23 07:36:37;;;;;;;5.80;3.90;;;14.00;76.10;;;;;;2263512;55;21018;-73
2021/09/23 07:39:07;;;;;;;4.50;2.90;;;14.10;75.90;;;;;;2267067;56;20974;-74
2021/09/23 07:41:34;;;;;;;7.68;3.60;;;14.20;75.90;;;;;;2270928;55;21228;-71
2021/09/23 07:44:00;;;;;;;4.72;3.17;;;14.30;75.90;;;;;;2245754;56;20983;-70
2021/09/23 07:46:27;;;;;;;5.28;3.08;;;14.40;75.90;;;;;;2254299;55;21002;-70
2021/09/23 07:48:53;;;;;;;5.72;3.30;;;14.50;75.90;;;;;;2297041;55;21997;-69
2021/09/23 07:51:20;;;;;;;4.60;3.03;;;14.60;75.90;;;;;;2271079;55;21435;-68
2021/09/23 07:53:47;;;;;;;7.70;3.67;;;14.70;76.00;;;;;;2262251;55;20942;-69
2021/09/23 07:56:14;;;;;;;4.93;3.53;;;14.80;76.00;;;;;;2269085;55;21069;-71
2021/09/23 07:58:41;;;;;;;7.82;3.87;;;15.00;76.30;;;;;;2302639;55;20974;-70
2021/09/23 08:01:08;;;;;;;5.78;3.60;;;15.10;76.30;;;;;;2268337;55;20958;-70
2021/09/23 08:03:35;;;;;;;5.43;3.25;;;15.20;76.30;;;;;;2334391;55;20953;-72
2021/09/23 08:06:02;;;;;;;5.20;3.37;;;15.30;76.40;;;;;;2268834;56;20987;-71
2021/09/23 08:08:28;;;;;;;6.25;3.50;;;15.40;76.50;;;;;;2267644;55;20990;-74
2021/09/23 08:10:56;;;;;;;6.20;3.92;;;15.60;76.70;;;;;;2266385;55;22020;-70
2021/09/23 08:13:22;;;;;;;5.68;3.33;;;15.70;76.80;;;;;;2265666;55;20982;-70
2021/09/23 08:15:49;;;;;;;5.28;3.67;;;15.80;76.80;;;;;;2267785;55;20946;-73
2021/09/23 08:18:18;;;;;;;7.03;3.83;;;15.90;76.90;;;;;;2388786;55;21638;-74
2021/09/23 08:20:44;;;;;;;6.50;3.55;;;16.00;76.70;;;;;;2264217;55;21002;-72
2021/09/23 08:23:11;;;;;;;6.65;4.10;;;16.20;76.80;;;;;;2249591;55;20985;-75
2021/09/23 08:25:38;;;;;;;6.97;4.03;;;16.30;76.60;;;;;;2266123;55;21923;-71
2021/09/23 08:28:04;;;;;;;5.95;3.72;;;16.40;76.60;;;;;;2480008;55;20998;-70
2021/09/23 08:30:30;;;;;;;7.00;4.25;;;16.50;76.80;;;;;;2317050;55;22021;-74
2021/09/23 08:32:57;;;;;;;5.30;3.72;;;16.70;76.90;;;;;;2262314;55;22008;-72
2021/09/23 08:35:23;;;;;;;6.82;3.60;;;16.80;76.70;;;;;;2253794;55;20969;-75
2021/09/23 08:37:50;;;;;;;5.00;3.12;;;16.90;76.90;;;;;;2269897;56;21565;-70
2021/09/23 08:40:17;;;;;;;4.87;2.97;;;17.00;77.10;;;;;;2269534;56;20978;-70
2021/09/23 08:42:44;;;;;;;4.50;2.83;;;17.20;77.40;;;;;;2268783;55;20986;-72
2021/09/23 08:45:12;;;;;;;4.57;2.58;;;17.30;77.40;;;;;;2268989;55;21006;-71
2021/09/23 08:47:40;;;;;;;4.43;2.95;;;17.40;77.40;;;;;;2245928;55;21002;-72
2021/09/23 08:50:10;;;;;;;5.95;3.08;;;17.60;77.30;;;;;;2260685;55;20997;-72
2021/09/23 08:52:38;;;;;;;4.20;2.58;;;17.70;76.90;;;;;;2253897;56;20947;-71
2021/09/23 08:55:05;;;;;;;3.30;1.92;;;17.90;77.00;;;;;;2263387;55;21021;-71
2021/09/23 08:57:31;;;;;;;4.37;2.40;;;18.00;77.10;;;;;;2268780;55;20966;-68
2021/09/23 09:00:07;;;;;;;5.20;2.90;;;18.20;77.00;;;;;;2253527;55;21408;-71
2021/09/23 09:02:33;;;;;;;4.32;2.62;;;18.30;76.40;;;;;;2258480;56;20978;-72
2021/09/23 09:05:00;;;;;;;5.20;2.87;;;18.50;76.70;;;;;;2267265;56;21010;-72
2021/09/23 09:07:31;;;;;;;4.45;2.65;;;18.60;76.40;;;;;;2290155;55;21184;-72
2021/09/23 09:10:04;;;;;;;6.53;2.97;;;18.70;76.00;;;;;;2270055;55;21054;-75
2021/09/23 09:12:32;;;;;;;5.62;2.25;;;18.90;75.30;;;;;;2250363;56;20938;-71
2021/09/23 09:14:58;;;;;;;4.53;2.53;;;19.00;75.90;;;;;;2266815;55;21597;-73
2021/09/23 09:17:26;;;;;;;5.00;2.83;;;19.10;75.70;;;;;;2266200;55;21498;-70
2021/09/23 09:20:02;;;;;;;5.03;2.78;;;19.20;75.40;;;;;;2240792;56;20997;-73
2021/09/23 09:22:30;;;;;;;4.43;2.40;;;19.40;74.90;;;;;;2268660;55;20970;-73
2021/09/23 09:25:08;;;;;;;5.25;3.10;;;19.40;75.30;;;;;;2267912;56;21022;-74
2021/09/23 09:27:45;;;;;;;4.15;2.35;;;19.60;74.50;;;;;;2282862;55;20962;-68
2021/09/23 09:30:19;;;;;;;3.58;2.15;;;19.70;73.80;;;;;;2411038;55;20957;-72
2021/09/23 09:32:49;;;;;;;4.28;2.30;;;19.80;74.50;;;;;;2272979;56;21122;-72
2021/09/23 09:35:22;;;;;;;3.47;2.12;;;19.90;74.20;;;;;;2244913;56;20982;-72
2021/09/23 09:37:50;;;;;;;4.50;2.90;;;20.10;74.20;;;;;;2243385;56;22293;-73
2021/09/23 09:40:19;;;;;;;5.55;2.75;;;20.20;74.00;;;;;;2331406;56;20990;-71
2021/09/23 09:42:48;;;;;;;4.60;2.28;;;20.30;74.30;;;;;;2242776;56;20950;-70
2021/09/23 09:45:22;;;;;;;3.65;1.83;;;20.40;74.50;;;;;;2267602;56;21002;-71
2021/09/23 09:47:52;;;;;;;3.53;2.20;;;20.60;74.30;;;;;;2271058;55;21086;-71
2021/09/23 09:50:24;;;;;;;3.40;2.17;;;20.70;74.80;;;;;;2245525;56;21070;-72
2021/09/23 09:52:56;;;;;;;3.33;2.12;;;20.80;74.00;;;;;;2249977;55;20961;-73
2021/09/23 09:55:28;;;;;;;5.37;2.15;;;21.00;74.30;;;;;;2252917;55;21911;-72
2021/09/23 09:57:54;;;;;;;3.80;2.65;;;21.10;73.60;;;;;;2233568;56;21826;-71
2021/09/23 10:00:24;;;;;;;3.33;2.28;;;21.20;74.00;;;;;;2234378;56;21092;-72
2021/09/23 10:02:51;;;;;;;3.65;2.10;;;21.30;73.30;;;;;;2243747;56;20963;-72
2021/09/23 10:05:18;;;;;;;4.70;2.37;;;21.40;73.40;;;;;;2247502;55;21023;-75
2021/09/23 10:07:47;;;;;;;4.20;2.25;;;21.50;73.00;;;;;;2253623;56;21002;-75
2021/09/23 10:10:19;;;;;;;4.00;2.60;;;21.60;72.80;;;;;;2255338;56;21011;-76
2021/09/23 10:12:46;;;;;;;4.55;2.42;;;21.70;72.10;;;;;;2470631;55;20994;-70
2021/09/23 10:15:14;;;;;;;4.45;2.42;;;21.70;72.30;;;;;;2310882;55;21841;-75
2021/09/23 10:17:44;;;;;;;4.20;2.72;;;21.80;72.20;;;;;;2358081;55;20974;-72
2021/09/23 10:20:11;;;;;;;4.12;2.65;;;21.80;71.90;;;;;;2248318;55;21545;-73
2021/09/23 10:22:37;;;;;;;4.15;2.35;;;21.90;71.60;;;;;;2273428;55;21979;-72
2021/09/23 10:25:05;;;;;;;4.60;2.53;;;22.00;71.70;;;;;;2253523;55;21062;-74
2021/09/23 10:30:16;;;;;;;4.22;2.55;;;22.20;71.60;;;;;;2253523;55;21043;-72
2021/09/23 10:32:43;;;;;;;5.95;3.22;;;22.30;71.60;;;;;;2249443;55;21082;-76
2021/09/23 10:35:11;;;;;;;4.22;2.58;;;22.30;71.30;;;;;;2324040;55;22253;-73
2021/09/23 10:37:38;;;;;;;6.28;2.92;;;22.40;71.20;;;;;;2283796;55;20979;-70
2021/09/23 10:40:05;;;;;;;5.32;3.87;;;22.50;71.00;;;;;;2253581;56;22210;-71
2021/09/23 10:42:32;;;;;;;4.62;3.10;;;22.50;70.50;;;;;;2240590;55;20977;-72
2021/09/23 10:44:58;;;;;;;4.75;3.35;;;22.60;70.70;;;;;;2459788;55;21436;-71
2021/09/23 10:47:28;;;;;;;4.50;2.90;;;22.60;70.50;;;;;;2242630;55;21033;-78
2021/09/23 10:49:55;;;;;;;4.90;2.90;;;22.70;69.90;;;;;;2270908;55;20950;-71
2021/09/23 10:52:22;;;;;;;4.10;2.65;;;22.70;70.50;;;;;;2356569;55;21065;-71
2021/09/23 10:54:52;;;;;;;3.87;2.57;;;22.80;70.50;;;;;;2233899;55;1317532;-73
2021/09/23 10:57:19;;;;;;;4.78;2.95;;;22.90;69.70;;;;;;2358894;55;20999;-72
2021/09/23 10:59:49;;;;;;;4.07;2.85;;;22.90;70.00;;;;;;2249659;55;21052;-71
2021/09/23 11:03:16;;;;;;;4.55;2.83;;;23.00;69.90;;;;;;2228446;56;21012;-78
2021/09/23 11:05:42;;;;;;;5.20;2.67;;;23.10;67.90;;;;;;2255648;56;20954;-74
2021/09/23 11:08:10;;;;;;;4.82;2.70;;;23.10;69.90;;;;;;2255789;56;20962;-73
2021/09/23 11:10:40;;;;;;;4.15;2.70;;;23.10;69.30;;;;;;2257999;55;21130;-71
2021/09/23 11:13:07;;;;;;;4.43;3.00;;;23.20;68.50;;;;;;2227106;56;21061;-74
2021/09/23 11:15:34;;;;;;;4.30;2.37;;;23.20;68.90;;;;;;2255281;56;20979;-71
2021/09/23 11:18:00;;;;;;;4.60;2.62;;;23.20;68.80;;;;;;2260447;55;21083;-71
2021/09/23 11:20:28;;;;;;;3.50;2.30;;;23.30;69.10;;;;;;2252902;55;21002;-78
2021/09/23 11:23:05;;;;;;;6.43;2.70;;;23.40;68.90;;;;;;2231616;55;20977;-74
2021/09/23 11:25:35;;;;;;;4.22;2.55;;;23.40;68.10;;;;;;2234215;56;21107;-73
2021/09/23 11:28:03;;;;;;;4.05;2.67;;;23.40;68.50;;;;;;2237974;56;20938;-72
2021/09/23 11:30:31;;;;;;;4.90;2.67;;;23.40;68.20;;;;;;2253984;55;21038;-73
2021/09/23 11:33:07;;;;;;;4.07;2.72;;;23.50;67.90;;;;;;2248181;55;21354;-74
2021/09/23 11:35:38;;;;;;;4.87;2.72;;;23.50;67.40;;;;;;2255858;56;20946;-75
2021/09/23 11:38:04;;;;;;;4.22;2.60;;;23.50;66.60;;;;;;2255157;55;20970;-71
2021/09/23 11:40:49;;;;;;;3.20;1.92;;;23.50;67.60;;;;;;2274241;55;20974;-72
2021/09/23 11:43:21;;;;;;;5.10;2.37;;;23.60;66.00;;;;;;2256607;56;20995;-72
2021/09/23 11:45:53;;;;;;;3.92;2.60;;;23.60;67.30;;;;;;2255037;56;20974;-70
2021/09/23 11:48:27;;;;;;;3.60;2.20;;;23.70;67.10;;;;;;2246794;55;20962;-75
2021/09/23 11:50:58;;;;;;;4.28;2.17;;;23.70;67.60;;;;;;2247177;55;20974;-72
2021/09/23 11:53:32;;;;;;;3.83;2.40;;;23.80;67.30;;;;;;2225789;56;20982;-72
2021/09/23 11:56:17;;;;;;;4.43;2.92;;;23.90;67.40;;;;;;2253070;56;20983;-72
2021/09/23 11:58:46;;;;;;;4.50;2.60;;;24.00;65.30;;;;;;2279246;55;21059;-71
2021/09/23 12:01:12;;;;;;;4.00;2.30;;;24.00;67.20;;;;;;2246707;55;20963;-71
2021/09/23 12:03:41;;;;;;;4.78;2.37;;;24.10;67.50;;;;;;2255773;56;21060;-71
2021/09/23 12:06:10;;;;;;;4.45;2.25;;;24.10;67.20;;;;;;2352111;55;22182;-72
2021/09/23 12:08:37;;;;;;;4.03;2.33;;;24.20;67.10;;;;;;2302658;55;20974;-72
2021/09/23 12:11:05;;;;;;;4.62;2.62;;;24.20;66.80;;;;;;2255453;56;21034;-71
2021/09/23 12:13:42;;;;;;;3.62;2.30;;;24.20;67.00;;;;;;2246737;55;21024;-77
2021/09/23 12:16:18;;;;;;;4.60;2.58;;;24.30;66.30;;;;;;2251022;55;21046;-73
2021/09/23 12:18:46;;;;;;;5.80;3.40;;;24.40;65.20;;;;;;2218351;56;21033;-76
2021/09/23 12:21:13;;;;;;;5.00;2.60;;;24.40;65.80;;;;;;2238958;55;21408;-71
2021/09/23 12:23:44;;;;;;;5.10;2.62;;;24.40;65.90;;;;;;2259695;56;20933;-71
2021/09/23 12:26:27;;;;;;;4.18;2.40;;;24.50;65.50;;;;;;2230133;56;21050;-71
2021/09/23 12:29:20;;;;;;;5.35;2.42;;;24.60;65.70;;;;;;2222741;55;20965;-71
2021/09/23 12:31:59;;;;;;;4.55;2.50;;;24.60;64.00;;;;;;2216187;56;20981;-73
2021/09/23 12:34:26;;;;;;;4.05;2.28;;;24.60;66.40;;;;;;2238655;56;21029;-71
2021/09/23 12:37:03;;;;;;;5.70;2.72;;;24.70;67.00;;;;;;2264445;56;21006;-71
2021/09/23 12:39:42;;;;;;;4.00;2.60;;;24.90;65.40;;;;;;2264799;55;20949;-72
2021/09/23 12:42:13;;;;;;;4.12;2.58;;;25.00;65.60;;;;;;2262916;55;22107;-71
2021/09/23 12:44:41;;;;;;;4.15;2.20;;;25.10;66.30;;;;;;2262181;55;20998;-71
2021/09/23 12:47:15;;;;;;;3.60;2.08;;;25.20;66.60;;;;;;2259995;55;21459;-76
2021/09/23 12:49:57;;;;;;;3.60;2.08;;;25.20;66.20;;;;;;2461068;55;22028;-71
2021/09/23 12:52:43;;;;;;;4.05;2.65;;;25.30;64.10;;;;;;2392475;55;20989;-71